createdAt,value
2022-08-18T00:01:36.166Z,46.67
2022-08-18T00:04:24.252Z,31.43
2022-08-18T00:06:50.961Z,29.90
2022-08-18T00:09:17.808Z,29.43
2022-08-18T00:11:45.156Z,28.87
2022-08-18T00:14:22.208Z,35.27
2022-08-18T00:16:52.586Z,32.93
2022-08-18T00:19:19.604Z,32.23
2022-08-18T00:21:46.488Z,34.23
2022-08-18T00:24:13.380Z,34.47
2022-08-18T00:26:40.205Z,35.53
2022-08-18T00:29:07.836Z,33.97
2022-08-18T00:31:35.049Z,33.57
2022-08-18T00:34:01.953Z,31.33
2022-08-18T00:36:29.775Z,31.23
2022-08-18T00:38:56.619Z,33.80
2022-08-18T00:41:26.422Z,35.43
2022-08-18T00:43:58.410Z,33.93
2022-08-18T00:46:30.475Z,32.47
2022-08-18T00:48:58.109Z,34.83
2022-08-18T00:51:30.150Z,29.67
2022-08-18T00:54:09.051Z,31.23
2022-08-18T00:56:44.176Z,30.53
2022-08-18T00:59:23.318Z,31.33
2022-08-18T01:01:52.365Z,32.97
2022-08-18T01:04:25.704Z,36.17
2022-08-18T01:06:57.434Z,43.53
2022-08-18T01:09:24.409Z,30.73
2022-08-18T01:11:51.537Z,31.77
2022-08-18T01:14:19.562Z,36.53
2022-08-18T01:17:07.018Z,33.13
2022-08-18T01:19:52.545Z,28.50
2022-08-18T01:22:40.987Z,33.77
2022-08-18T01:25:27.305Z,35.67
2022-08-18T01:27:56.786Z,32.43
2022-08-18T01:30:27.800Z,30.10
2022-08-18T01:32:54.675Z,30.37
2022-08-18T01:35:25.591Z,36.43
2022-08-18T01:37:53.605Z,34.87
2022-08-18T01:41:11.076Z,38.07
2022-08-18T01:43:11.817Z,33.37
2022-08-18T01:45:39.246Z,28.73
2022-08-18T01:48:06.400Z,33.10
2022-08-18T01:50:35.216Z,32.57
2022-08-18T01:53:05.527Z,35.60
2022-08-18T01:55:37.220Z,35.23
2022-08-18T01:58:05.513Z,30.80
2022-08-18T02:00:32.470Z,33.27
2022-08-18T02:03:02.267Z,36.80
2022-08-18T02:05:36.868Z,35.63
2022-08-18T02:08:06.453Z,32.47
2022-08-18T02:10:33.634Z,36.27
2022-08-18T02:13:02.056Z,33.93
2022-08-18T02:15:28.855Z,34.60
2022-08-18T02:17:55.744Z,31.57
2022-08-18T02:20:23.036Z,33.13
2022-08-18T02:22:50.088Z,30.77
2022-08-18T02:25:18.660Z,35.07
2022-08-18T02:27:45.985Z,28.63
2022-08-18T02:30:16.377Z,32.40
2022-08-18T02:32:43.231Z,31.50
2022-08-18T02:35:11.920Z,29.93
2022-08-18T02:37:42.239Z,30.73
2022-08-18T02:40:14.799Z,30.33
2022-08-18T02:42:42.646Z,36.73
2022-08-18T02:45:10.278Z,35.57
2022-08-18T02:47:37.187Z,30.57
2022-08-18T02:50:04.548Z,31.90
2022-08-18T02:52:34.117Z,33.10
2022-08-18T02:55:04.283Z,34.17
2022-08-18T02:57:32.432Z,36.70
2022-08-18T03:00:00.474Z,35.33
2022-08-18T03:02:28.022Z,35.67
2022-08-18T03:04:54.807Z,51.40
2022-08-18T03:07:21.628Z,51.07
2022-08-18T03:09:48.571Z,63.40
2022-08-18T03:12:15.722Z,69.80
2022-08-18T03:14:43.662Z,64.67
2022-08-18T03:17:11.134Z,61.90
2022-08-18T03:19:38.561Z,60.20
2022-08-18T03:22:27.371Z,57.87
2022-08-18T03:24:55.322Z,56.80
2022-08-18T03:27:22.271Z,46.93
2022-08-18T03:29:50.255Z,44.03
2022-08-18T03:32:17.551Z,44.07
2022-08-18T03:34:44.460Z,44.23
2022-08-18T03:37:11.331Z,41.33
2022-08-18T03:39:38.420Z,40.53
2022-08-18T03:42:05.438Z,44.57
2022-08-18T03:44:35.684Z,37.57
2022-08-18T03:47:07.314Z,43.03
2022-08-18T03:49:34.174Z,39.13
2022-08-18T03:52:02.212Z,35.80
2022-08-18T03:54:32.393Z,34.77
2022-08-18T03:59:44.466Z,34.43
2022-08-18T04:02:11.972Z,33.50
2022-08-18T04:04:42.926Z,31.70
2022-08-18T04:07:16.856Z,39.27
2022-08-18T04:09:44.119Z,42.67
2022-08-18T04:12:16.626Z,37.63
2022-08-18T04:14:48.442Z,35.27
2022-08-18T04:17:17.737Z,34.17
2022-08-18T04:19:44.608Z,31.47
2022-08-18T04:22:17.360Z,33.00
2022-08-18T04:24:45.897Z,31.70
2022-08-18T04:27:12.858Z,33.10
2022-08-18T04:29:39.803Z,32.30
2022-08-18T04:32:06.974Z,30.97
2022-08-18T04:34:34.504Z,29.40
2022-08-18T04:37:02.355Z,31.00
2022-08-18T04:39:30.566Z,30.07
2022-08-18T04:41:59.260Z,32.83
2022-08-18T04:44:26.428Z,34.60
2022-08-18T04:46:54.699Z,33.30
2022-08-18T04:49:25.964Z,29.27
2022-08-18T04:52:34.157Z,31.30
2022-08-18T04:55:01.810Z,32.40
2022-08-18T04:57:29.246Z,32.77
2022-08-18T05:00:00.753Z,35.07
2022-08-18T05:02:28.203Z,34.37
2022-08-18T05:04:55.094Z,35.70
2022-08-18T05:07:23.069Z,33.27
2022-08-18T05:09:50.830Z,30.90
2022-08-18T05:12:18.014Z,32.07
2022-08-18T05:14:48.074Z,33.17
2022-08-18T05:17:16.170Z,32.10
2022-08-18T05:19:46.124Z,42.10
2022-08-18T05:22:18.248Z,50.27
2022-08-18T05:24:45.693Z,30.33
2022-08-18T05:27:13.600Z,35.37
2022-08-18T05:29:41.675Z,31.63
2022-08-18T05:32:42.500Z,35.40
2022-08-18T05:35:10.432Z,31.37
2022-08-18T05:37:55.147Z,29.87
2022-08-18T05:40:25.048Z,27.13
2022-08-18T05:42:52.143Z,30.60
2022-08-18T05:45:20.195Z,29.13
2022-08-18T05:47:47.594Z,31.57
2022-08-18T05:50:19.620Z,33.03
2022-08-18T05:53:00.996Z,26.13
2022-08-18T05:56:20.131Z,26.33
2022-08-18T05:58:51.562Z,28.60
2022-08-18T06:01:29.946Z,36.53
2022-08-18T06:04:16.488Z,35.47
2022-08-18T06:06:47.692Z,34.07
2022-08-18T06:09:22.505Z,31.17
2022-08-18T06:11:50.495Z,33.23
2022-08-18T06:14:17.577Z,34.43
2022-08-18T06:17:07.603Z,27.97
2022-08-18T06:19:57.145Z,28.37
2022-08-18T06:23:00.008Z,26.63
2022-08-18T06:25:35.749Z,28.10
2022-08-18T06:28:05.865Z,27.90
2022-08-18T06:31:02.918Z,27.57
2022-08-18T06:33:32.602Z,25.73
2022-08-18T06:36:08.855Z,28.73
2022-08-18T06:39:13.982Z,32.50
2022-08-18T06:41:49.091Z,31.63
2022-08-18T06:44:37.523Z,25.23
2022-08-18T06:47:04.756Z,25.33
2022-08-18T06:49:54.954Z,26.40
2022-08-18T06:52:26.626Z,25.13
2022-08-18T06:54:56.233Z,26.30
2022-08-18T06:57:57.802Z,27.70
2022-08-18T07:00:27.457Z,35.90
2022-08-18T07:03:18.118Z,26.30
2022-08-18T07:06:08.697Z,23.80
2022-08-18T07:08:41.348Z,22.85
2022-08-18T07:11:25.069Z,19.83
2022-08-18T07:14:15.099Z,18.77
2022-08-18T07:16:59.401Z,20.10
2022-08-18T07:19:34.230Z,21.00
2022-08-18T07:22:09.901Z,23.65
2022-08-18T07:24:45.487Z,19.40
2022-08-18T07:27:14.805Z,22.55
2022-08-18T07:30:06.002Z,35.93
2022-08-18T07:32:53.606Z,37.40
2022-08-18T07:35:28.066Z,36.60
2022-08-18T07:38:38.569Z,36.08
2022-08-18T07:41:20.631Z,17.13
2022-08-18T07:43:53.466Z,17.42
2022-08-18T07:46:43.511Z,18.75
2022-08-18T07:49:21.663Z,19.75
2022-08-18T07:52:19.964Z,27.42
2022-08-18T07:55:20.889Z,18.45
2022-08-18T07:58:02.801Z,17.02
2022-08-18T08:06:24.514Z,24.67
2022-08-18T08:09:16.414Z,15.45
2022-08-18T08:12:18.203Z,15.57
2022-08-18T08:15:00.963Z,15.15
2022-08-18T08:17:53.976Z,15.70
2022-08-18T08:20:44.724Z,18.55
2022-08-18T08:23:52.171Z,16.48
2022-08-18T08:26:48.018Z,22.25
2022-08-18T08:29:48.099Z,15.02
2022-08-18T08:32:41.927Z,16.02
2022-08-18T08:35:50.341Z,16.60
2022-08-18T08:38:43.133Z,18.67
2022-08-18T08:41:44.509Z,14.02
2022-08-18T08:44:32.099Z,18.05
2022-08-18T08:47:08.354Z,13.88
2022-08-18T08:49:42.757Z,17.27
2022-08-18T08:52:21.471Z,17.98
2022-08-18T08:55:07.368Z,15.75
2022-08-18T08:57:39.337Z,14.05
2022-08-18T09:03:30.664Z,14.73
2022-08-18T09:06:03.531Z,15.20
2022-08-18T09:08:42.866Z,13.90
2022-08-18T09:11:36.235Z,14.52
2022-08-18T09:14:17.675Z,15.45
2022-08-18T09:17:23.977Z,17.00
2022-08-18T09:20:12.325Z,14.77
2022-08-18T09:22:42.376Z,17.05
2022-08-18T09:25:29.719Z,13.35
2022-08-18T09:28:19.610Z,11.25
2022-08-18T09:30:49.280Z,14.85
2022-08-18T09:33:32.709Z,15.32
2022-08-18T09:36:18.460Z,15.23
2022-08-18T09:39:16.202Z,15.82
2022-08-18T09:42:15.845Z,13.52
2022-08-18T09:44:49.200Z,14.00
2022-08-18T09:47:22.276Z,12.30
2022-08-18T09:49:55.959Z,13.90
2022-08-18T09:55:18.379Z,16.58
2022-08-18T09:57:47.945Z,8.80
2022-08-18T10:00:28.551Z,11.48
2022-08-18T10:02:56.017Z,9.80
2022-08-18T10:05:29.507Z,13.43
2022-08-18T10:08:06.148Z,11.55
2022-08-18T10:10:59.802Z,11.57
2022-08-18T10:14:06.641Z,10.15
2022-08-18T10:20:26.399Z,8.75
2022-08-18T10:22:55.119Z,8.48
2022-08-18T10:25:39.089Z,9.35
2022-08-18T10:28:12.799Z,10.05
2022-08-18T10:30:56.249Z,12.00
2022-08-18T10:33:55.031Z,11.70
2022-08-18T10:36:59.389Z,8.45
2022-08-18T10:39:41.290Z,11.45
2022-08-18T10:42:32.909Z,9.45
2022-08-18T10:45:24.672Z,9.88
2022-08-18T10:48:30.389Z,10.13
2022-08-18T10:51:22.893Z,10.95
2022-08-18T10:54:03.366Z,9.23
2022-08-18T10:56:48.660Z,8.55
2022-08-18T10:59:48.915Z,7.68
2022-08-18T11:02:34.837Z,8.85
2022-08-18T11:05:11.551Z,9.50
2022-08-18T11:07:43.030Z,10.30
2022-08-18T11:10:30.026Z,10.05
2022-08-18T11:13:10.097Z,8.65
2022-08-18T11:15:55.713Z,7.80
2022-08-18T11:18:44.258Z,10.50
2022-08-18T11:21:42.315Z,9.98
2022-08-18T11:24:12.794Z,6.80
2022-08-18T11:27:15.275Z,8.52
2022-08-18T11:29:49.118Z,9.57
2022-08-18T11:32:30.862Z,12.50
2022-08-18T11:34:59.654Z,8.88
2022-08-18T11:37:51.508Z,7.85
2022-08-18T11:43:41.310Z,11.25
2022-08-18T11:49:26.478Z,8.30
2022-08-18T11:52:06.567Z,9.93
2022-08-18T11:54:39.303Z,13.05
2022-08-18T11:57:46.448Z,11.23
2022-08-18T12:00:43.133Z,9.32
2022-08-18T12:03:17.248Z,7.18
2022-08-18T12:05:56.638Z,7.22
2022-08-18T12:11:28.118Z,8.30
2022-08-18T12:14:30.528Z,8.43
2022-08-18T12:16:54.919Z,8.23
2022-08-18T12:19:24.319Z,7.90
2022-08-18T12:21:51.317Z,8.48
2022-08-18T12:24:36.797Z,6.53
2022-08-18T12:27:12.312Z,9.00
2022-08-18T12:29:49.463Z,9.45
2022-08-18T12:32:18.193Z,18.70
2022-08-18T12:38:04.995Z,14.45
2022-08-18T12:40:40.295Z,10.77
2022-08-18T12:43:07.962Z,11.43
2022-08-18T12:45:37.920Z,8.13
2022-08-18T12:48:06.902Z,8.80
2022-08-18T12:50:41.118Z,9.45
2022-08-18T12:53:17.625Z,8.43
2022-08-18T12:55:45.829Z,9.50
2022-08-18T12:58:13.005Z,11.90
2022-08-18T13:00:41.362Z,8.50
2022-08-18T13:03:09.395Z,11.07
2022-08-18T13:05:37.424Z,14.25
2022-08-18T13:08:09.726Z,12.73
2022-08-18T13:10:45.539Z,12.45
2022-08-18T13:13:14.793Z,12.25
2022-08-18T13:15:55.369Z,8.10
2022-08-18T13:18:27.389Z,10.43
2022-08-18T13:20:57.695Z,9.43
2022-08-18T13:23:27.391Z,8.38
2022-08-18T13:25:59.458Z,7.95
2022-08-18T13:28:35.850Z,7.18
2022-08-18T13:31:17.830Z,10.35
2022-08-18T13:33:57.024Z,8.52
2022-08-18T13:36:45.958Z,9.48
2022-08-18T13:39:18.473Z,9.02
2022-08-18T13:41:47.719Z,9.50
2022-08-18T13:44:18.903Z,9.00
2022-08-18T13:46:48.630Z,8.25
2022-08-18T13:49:23.450Z,9.60
2022-08-18T13:52:00.308Z,9.88
2022-08-18T13:54:35.375Z,8.23
2022-08-18T13:57:04.196Z,9.07
2022-08-18T13:59:33.172Z,6.85
2022-08-18T14:02:05.867Z,9.18
2022-08-18T14:04:36.301Z,16.17
2022-08-18T14:07:09.213Z,10.77
2022-08-18T14:09:38.285Z,9.48
2022-08-18T14:12:16.054Z,17.58
2022-08-18T14:14:55.247Z,8.98
2022-08-18T14:17:24.292Z,11.48
2022-08-18T14:20:15.359Z,10.02
2022-08-18T14:23:13.538Z,9.80
2022-08-18T14:26:00.125Z,11.55
2022-08-18T14:28:31.749Z,9.93
2022-08-18T14:31:02.618Z,9.52
2022-08-18T14:33:51.166Z,8.23
2022-08-18T14:36:18.330Z,9.40
2022-08-18T14:38:45.498Z,8.63
2022-08-18T14:41:13.926Z,9.52
2022-08-18T14:44:11.412Z,10.32
2022-08-18T14:46:32.723Z,9.32
2022-08-18T14:49:01.908Z,8.45
2022-08-18T14:51:31.890Z,13.52
2022-08-18T14:54:01.298Z,10.55
2022-08-18T14:56:29.658Z,9.45
2022-08-18T14:59:05.518Z,12.82
2022-08-18T15:01:34.866Z,8.90
2022-08-18T15:04:19.148Z,8.98
2022-08-18T15:06:56.507Z,11.18
2022-08-18T15:09:27.435Z,10.98
2022-08-18T15:11:56.268Z,10.50
2022-08-18T15:14:32.942Z,10.65
2022-08-18T15:17:13.123Z,11.45
2022-08-18T15:19:59.227Z,10.68
2022-08-18T15:22:46.142Z,9.93
2022-08-18T15:25:34.259Z,9.82
2022-08-18T15:28:01.515Z,10.60
2022-08-18T15:30:28.777Z,8.15
2022-08-18T15:32:55.789Z,11.35
2022-08-18T15:35:22.722Z,8.00
2022-08-18T15:37:51.427Z,12.07
2022-08-18T15:40:30.987Z,9.63
2022-08-18T15:43:10.003Z,10.85
2022-08-18T15:45:56.089Z,18.73
2022-08-18T15:48:26.152Z,10.10
2022-08-18T15:50:53.049Z,11.48
2022-08-18T15:53:23.374Z,11.48
2022-08-18T15:55:50.451Z,11.77
2022-08-18T15:58:22.342Z,9.90
2022-08-18T16:00:50.457Z,10.15
2022-08-18T16:03:18.174Z,10.60
2022-08-18T16:05:53.857Z,15.15
2022-08-18T16:08:23.608Z,14.07
2022-08-18T16:10:51.337Z,10.57
2022-08-18T16:13:19.306Z,10.57
2022-08-18T16:15:48.292Z,11.55
2022-08-18T16:18:17.275Z,11.77
2022-08-18T16:20:44.814Z,17.20
2022-08-18T16:23:12.438Z,13.80
2022-08-18T16:25:43.551Z,10.50
2022-08-18T16:28:13.436Z,11.43
2022-08-18T16:30:41.246Z,9.57
2022-08-18T16:33:08.336Z,11.63
2022-08-18T16:35:37.335Z,10.52
2022-08-18T16:38:07.528Z,23.63
2022-08-18T16:40:34.436Z,17.17
2022-08-18T16:43:01.363Z,10.13
2022-08-18T16:45:28.855Z,11.38
2022-08-18T16:47:55.944Z,11.68
2022-08-18T16:50:24.935Z,12.43
2022-08-18T16:52:52.415Z,16.15
2022-08-18T16:55:19.811Z,12.82
2022-08-18T16:58:05.162Z,12.43
2022-08-18T17:00:54.939Z,10.02
2022-08-18T17:03:43.667Z,11.18
2022-08-18T17:06:14.333Z,12.10
2022-08-18T17:08:42.620Z,12.02
2022-08-18T17:11:17.282Z,18.50
2022-08-18T17:13:45.412Z,13.65
2022-08-18T17:16:12.870Z,15.13
2022-08-18T17:18:39.799Z,11.50
2022-08-18T17:21:10.237Z,12.18
2022-08-18T17:23:39.140Z,12.20
2022-08-18T17:26:12.722Z,12.65
2022-08-18T17:28:50.170Z,13.32
2022-08-18T17:31:24.663Z,12.30
2022-08-18T17:33:56.946Z,12.02
2022-08-18T17:36:38.087Z,12.35
2022-08-18T17:39:13.192Z,13.88
2022-08-18T17:42:01.916Z,13.75
2022-08-18T17:44:31.433Z,12.40
2022-08-18T17:47:02.452Z,12.68
2022-08-18T17:50:27.016Z,12.80
2022-08-18T17:52:56.404Z,12.52
2022-08-18T17:55:28.655Z,11.43
2022-08-18T17:58:06.823Z,10.77
2022-08-18T18:00:33.732Z,13.02
2022-08-18T18:03:01.359Z,13.57
2022-08-18T18:05:37.025Z,12.85
2022-08-18T18:08:04.266Z,14.05
2022-08-18T18:11:04.831Z,14.88
2022-08-18T18:13:33.669Z,11.13
2022-08-18T18:16:35.205Z,16.30
2022-08-18T18:19:06.134Z,14.07
2022-08-18T18:22:00.631Z,14.55
2022-08-18T18:24:31.642Z,14.15
2022-08-18T18:26:58.888Z,21.33
2022-08-18T18:29:37.079Z,16.92
2022-08-18T18:32:24.827Z,14.55
2022-08-18T18:35:18.507Z,13.25
2022-08-18T18:38:00.786Z,14.57
2022-08-18T18:40:37.317Z,14.25
2022-08-18T18:43:38.293Z,13.90
2022-08-18T18:46:29.940Z,12.80
2022-08-18T18:49:18.989Z,14.13
2022-08-18T18:52:06.147Z,15.43
2022-08-18T18:54:39.735Z,14.10
2022-08-18T18:57:38.130Z,14.55
2022-08-18T19:00:19.960Z,15.07
2022-08-18T19:03:03.583Z,18.70
2022-08-18T19:05:49.526Z,13.55
2022-08-18T19:08:50.578Z,12.85
2022-08-18T19:11:38.991Z,13.93
2022-08-18T19:14:13.980Z,12.57
2022-08-18T19:16:59.636Z,17.67
2022-08-18T19:19:42.794Z,19.15
2022-08-18T19:22:40.027Z,16.27
2022-08-18T19:25:25.386Z,15.95
2022-08-18T19:28:04.532Z,17.48
2022-08-18T19:30:34.689Z,14.45
2022-08-18T19:33:05.473Z,18.58
2022-08-18T19:35:58.726Z,16.67
2022-08-18T19:39:05.209Z,18.23
2022-08-18T19:41:40.661Z,17.70
2022-08-18T19:44:33.386Z,20.23
2022-08-18T19:47:29.395Z,15.60
2022-08-18T19:50:35.075Z,18.42
2022-08-18T19:53:52.445Z,13.25
2022-08-18T19:56:25.482Z,15.85
2022-08-18T19:59:35.196Z,15.18
2022-08-18T20:02:21.383Z,17.67
2022-08-18T20:05:20.461Z,16.23
2022-08-18T20:08:17.897Z,17.40
2022-08-18T20:11:15.779Z,21.95
2022-08-18T20:13:45.587Z,15.57
2022-08-18T20:16:23.723Z,18.02
2022-08-18T20:18:57.354Z,17.98
2022-08-18T20:21:36.860Z,16.58
2022-08-18T20:24:31.095Z,18.13
2022-08-18T20:27:21.355Z,19.73
2022-08-18T20:29:51.800Z,17.00
2022-08-18T20:32:41.651Z,18.05
2022-08-18T20:35:30.027Z,15.35
2022-08-18T20:38:14.631Z,17.80
2022-08-18T20:40:48.614Z,16.08
2022-08-18T20:43:27.506Z,19.67
2022-08-18T20:46:35.135Z,19.30
2022-08-18T20:49:26.227Z,16.63
2022-08-18T20:52:11.752Z,22.20
2022-08-18T20:55:11.735Z,17.60
2022-08-18T20:57:39.089Z,19.00
2022-08-18T21:00:23.912Z,19.73
2022-08-18T21:02:59.792Z,16.87
2022-08-18T21:05:35.093Z,22.52
2022-08-18T21:08:05.896Z,19.10
2022-08-18T21:10:34.007Z,16.98
2022-08-18T21:13:03.634Z,18.80
2022-08-18T21:15:36.066Z,16.45
2022-08-18T21:18:07.111Z,15.88
2022-08-18T21:20:34.425Z,18.23
2022-08-18T21:23:13.764Z,19.40
2022-08-18T21:25:54.759Z,18.33
2022-08-18T21:28:25.309Z,18.83
2022-08-18T21:31:28.954Z,21.15
2022-08-18T21:33:51.092Z,20.90
2022-08-18T21:36:20.326Z,18.27
2022-08-18T21:38:58.440Z,18.30
2022-08-18T21:41:34.046Z,18.63
2022-08-18T21:44:08.446Z,18.00
2022-08-18T21:46:35.805Z,17.33
2022-08-18T21:49:04.004Z,19.80
2022-08-18T21:51:41.716Z,18.25
2022-08-18T21:54:09.466Z,17.98
2022-08-18T21:56:37.438Z,19.50
2022-08-18T21:59:12.268Z,19.77
2022-08-18T22:01:48.255Z,20.73
2022-08-18T22:04:24.373Z,18.47
2022-08-18T22:06:58.294Z,22.23
2022-08-18T22:10:06.925Z,18.77
2022-08-18T22:12:55.019Z,27.15
2022-08-18T22:15:21.840Z,19.90
2022-08-18T22:17:52.127Z,17.92
2022-08-18T22:20:42.594Z,18.00
2022-08-18T22:23:33.931Z,16.92
2022-08-18T22:26:09.311Z,18.63
2022-08-18T22:28:45.084Z,18.10
2022-08-18T22:31:20.929Z,18.60
2022-08-18T22:33:48.977Z,19.60
2022-08-18T22:36:19.462Z,18.02
2022-08-18T22:38:47.972Z,19.40
2022-08-18T22:41:16.388Z,17.17
2022-08-18T22:43:43.927Z,20.45
2022-08-18T22:46:11.326Z,17.93
2022-08-18T22:48:38.607Z,19.80
2022-08-18T22:51:05.957Z,18.10
2022-08-18T22:53:32.850Z,19.45
2022-08-18T22:56:05.795Z,16.60
2022-08-18T22:58:34.119Z,16.03
2022-08-18T23:01:05.709Z,20.20
2022-08-18T23:03:34.411Z,18.47
2022-08-18T23:06:09.976Z,17.85
2022-08-18T23:08:55.153Z,16.47
2022-08-18T23:11:24.652Z,19.00
2022-08-18T23:13:51.628Z,18.33
2022-08-18T23:16:31.744Z,19.47
2022-08-18T23:19:03.481Z,18.17
2022-08-18T23:21:34.285Z,17.70
2022-08-18T23:24:04.347Z,16.17
2022-08-18T23:26:31.286Z,18.87
2022-08-18T23:28:58.181Z,18.87
2022-08-18T23:31:24.998Z,19.47
2022-08-18T23:33:51.883Z,17.17
2022-08-18T23:36:18.711Z,18.60
2022-08-18T23:38:45.533Z,16.02
2022-08-18T23:41:16.295Z,18.27
2022-08-18T23:43:43.298Z,16.30
2022-08-18T23:46:24.127Z,17.47
2022-08-18T23:48:52.497Z,17.80
2022-08-18T23:51:32.323Z,15.40
2022-08-18T23:54:02.980Z,17.73
2022-08-18T23:56:31.259Z,17.10
2022-08-18T23:58:59.022Z,18.10
